Time;durP1;ratioP1;P1;durP2;ratioP2;P2;SDS_P1;SDS_P2;PMS_P1;PMS_P2;Temp;Humidity;BMP_temperature;BMP_pressure;BME280_temperature;BME280_humidity;BME280_pressure;Samples;Min_cycle;Max_cycle;Signal;HPM_P1;HPM_P2
2021/01/03 00:00:24;;;;;;;16.27;5.10;;;4.40;99.90;;;;;;10371318;28;20363;-52
2021/01/03 00:05:45;;;;;;;7.90;3.97;;;4.40;99.90;;;;;;10367016;28;20129;-52
2021/01/03 00:11:06;;;;;;;17.67;5.05;;;4.40;99.90;;;;;;10355829;28;20041;-53
2021/01/03 00:16:27;;;;;;;13.45;4.45;;;4.40;99.90;;;;;;10368062;28;20077;-52
2021/01/03 00:21:49;;;;;;;18.75;3.75;;;4.40;99.90;;;;;;10367705;28;20997;-52
2021/01/03 00:27:10;;;;;;;22.27;5.25;;;4.50;99.90;;;;;;10366953;28;20375;-53
2021/01/03 00:32:31;;;;;;;9.20;3.55;;;4.50;99.90;;;;;;10379010;28;20037;-52
2021/01/03 00:37:52;;;;;;;16.42;6.05;;;4.40;99.90;;;;;;10379349;28;20046;-52
2021/01/03 00:43:15;;;;;;;19.40;5.07;;;4.50;99.90;;;;;;10366181;28;20045;-52
2021/01/03 00:48:36;;;;;;;18.50;5.22;;;4.40;99.90;;;;;;10365632;28;20116;-53
2021/01/03 00:53:57;;;;;;;9.25;3.55;;;4.40;99.90;;;;;;10366195;28;20139;-52
2021/01/03 00:59:18;;;;;;;17.50;4.82;;;4.40;99.90;;;;;;10362370;28;20041;-53
2021/01/03 01:04:39;;;;;;;13.15;4.18;;;4.50;99.90;;;;;;10366552;28;20041;-52
2021/01/03 01:10:01;;;;;;;14.25;5.70;;;4.40;99.90;;;;;;10366280;28;20615;-52
2021/01/03 01:15:24;;;;;;;14.10;5.32;;;4.50;99.90;;;;;;10366896;28;20049;-53
2021/01/03 01:20:45;;;;;;;10.75;4.20;;;4.40;99.90;;;;;;10364216;28;20072;-52
2021/01/03 01:26:06;;;;;;;8.43;5.05;;;4.40;99.90;;;;;;10365973;28;20049;-52
2021/01/03 01:31:26;;;;;;;5.13;3.38;;;4.30;99.90;;;;;;10365042;28;20034;-52
2021/01/03 01:36:47;;;;;;;12.20;3.65;;;4.30;99.90;;;;;;10363644;28;20056;-53
2021/01/03 01:42:09;;;;;;;15.93;5.45;;;4.30;99.90;;;;;;10365384;28;20121;-52
2021/01/03 01:47:37;;;;;;;6.18;2.80;;;4.30;99.90;;;;;;10363967;28;20042;-52
2021/01/03 01:52:59;;;;;;;13.10;4.28;;;4.30;99.90;;;;;;10363205;28;20138;-52
2021/01/03 01:58:59;;;;;;;12.50;3.10;;;4.20;99.90;;;;;;10375648;28;20045;-53
2021/01/03 02:04:34;;;;;;;10.60;3.50;;;4.20;99.90;;;;;;10346912;28;20041;-52
2021/01/03 02:10:06;;;;;;;7.53;3.95;;;4.20;99.90;;;;;;10363732;28;20049;-52
2021/01/03 02:15:29;;;;;;;14.52;4.95;;;4.10;99.90;;;;;;10361424;28;20038;-52
2021/01/03 02:21:09;;;;;;;13.30;3.92;;;4.10;99.90;;;;;;10363997;28;20169;-52
2021/01/03 02:26:36;;;;;;;13.90;4.95;;;4.20;99.90;;;;;;10360830;28;20667;-52
2021/01/03 02:32:00;;;;;;;18.08;4.10;;;4.10;99.90;;;;;;10365807;28;20102;-52
2021/01/03 02:37:44;;;;;;;12.95;4.63;;;4.10;99.90;;;;;;10368772;28;20042;-52
2021/01/03 02:43:05;;;;;;;16.73;4.13;;;4.10;99.90;;;;;;10368895;28;20821;-52
2021/01/03 02:48:26;;;;;;;13.45;3.65;;;4.10;99.90;;;;;;10373215;28;20098;-52
2021/01/03 02:53:47;;;;;;;18.65;5.40;;;4.10;99.90;;;;;;10370831;28;20465;-52
2021/01/03 02:59:08;;;;;;;13.48;3.33;;;4.00;99.90;;;;;;10368845;28;20037;-52
2021/01/03 03:04:29;;;;;;;19.85;5.65;;;4.10;99.90;;;;;;10372509;28;20049;-52
2021/01/03 03:09:50;;;;;;;8.75;3.05;;;4.10;99.90;;;;;;10372463;28;20049;-52
2021/01/03 03:15:12;;;;;;;12.73;4.68;;;4.00;99.90;;;;;;10374195;28;20421;-52
2021/01/03 03:20:33;;;;;;;17.85;4.82;;;4.10;99.90;;;;;;10381145;28;20045;-52
2021/01/03 03:25:53;;;;;;;12.07;4.30;;;4.20;99.90;;;;;;10368642;28;20054;-52
2021/01/03 03:31:15;;;;;;;13.25;3.63;;;4.10;99.90;;;;;;10366455;28;20049;-52
2021/01/03 03:36:36;;;;;;;9.85;4.00;;;4.20;99.90;;;;;;10368920;28;20038;-52
2021/01/03 03:41:59;;;;;;;17.38;4.45;;;4.10;99.90;;;;;;10367724;28;20033;-52
2021/01/03 03:47:20;;;;;;;17.23;3.95;;;4.10;99.90;;;;;;10368663;28;20490;-52
2021/01/03 03:52:41;;;;;;;14.63;4.63;;;4.20;99.90;;;;;;10378453;28;20049;-52
2021/01/03 03:58:02;;;;;;;25.33;5.25;;;4.20;99.90;;;;;;10367918;28;20539;-52
2021/01/03 04:03:23;;;;;;;23.20;5.53;;;4.20;99.90;;;;;;10370233;28;20045;-52
2021/01/03 04:08:44;;;;;;;20.80;4.95;;;4.20;99.90;;;;;;10366639;28;20068;-52
2021/01/03 04:14:06;;;;;;;11.20;3.50;;;4.20;99.90;;;;;;10367059;28;20042;-52
2021/01/03 04:19:28;;;;;;;9.60;3.92;;;4.10;99.90;;;;;;10363654;28;20494;-52
2021/01/03 04:24:49;;;;;;;13.75;3.95;;;4.10;99.90;;;;;;10369975;28;20117;-52
2021/01/03 04:30:11;;;;;;;13.48;3.83;;;4.20;99.90;;;;;;10364130;28;20042;-52
2021/01/03 04:35:32;;;;;;;13.43;4.13;;;4.10;99.90;;;;;;10366616;28;20068;-52
2021/01/03 04:40:56;;;;;;;9.70;3.03;;;4.10;99.90;;;;;;10369952;28;20424;-52
2021/01/03 04:46:21;;;;;;;5.30;2.83;;;4.10;99.90;;;;;;10364506;28;20045;-52
2021/01/03 04:52:19;;;;;;;13.18;4.78;;;4.10;99.90;;;;;;10367694;28;20038;-52
2021/01/03 04:57:56;;;;;;;9.85;3.67;;;4.10;99.90;;;;;;10366329;28;20041;-52
2021/01/03 05:03:42;;;;;;;12.95;3.38;;;4.10;99.90;;;;;;10364136;28;20040;-52
2021/01/03 05:09:06;;;;;;;9.13;2.83;;;4.10;99.90;;;;;;10362574;28;20504;-52
2021/01/03 05:14:47;;;;;;;10.80;3.47;;;4.10;99.90;;;;;;10364514;28;20612;-52
2021/01/03 05:20:08;;;;;;;8.35;2.40;;;4.10;99.90;;;;;;10362954;28;21531;-52
2021/01/03 05:25:41;;;;;;;14.35;3.92;;;4.20;99.90;;;;;;10362567;28;20501;-52
2021/01/03 05:31:18;;;;;;;7.57;2.88;;;4.10;99.90;;;;;;10362686;28;20443;-52
2021/01/03 05:36:51;;;;;;;9.70;3.33;;;4.10;99.90;;;;;;10364051;28;20037;-52
2021/01/03 05:42:18;;;;;;;8.90;2.20;;;4.10;99.90;;;;;;10362101;28;20037;-52
2021/01/03 05:47:53;;;;;;;17.02;5.15;;;4.10;99.90;;;;;;10366123;28;20049;-52
2021/01/03 05:53:28;;;;;;;10.25;2.50;;;4.10;99.90;;;;;;10361784;28;20038;-52
2021/01/03 05:58:54;;;;;;;14.60;2.90;;;4.10;99.90;;;;;;10362548;28;20049;-52
2021/01/03 06:04:21;;;;;;;8.95;2.72;;;4.00;99.90;;;;;;10364405;28;20540;-52
2021/01/03 06:09:42;;;;;;;16.02;5.65;;;4.00;99.90;;;;;;10362864;28;20029;-52
2021/01/03 06:15:06;;;;;;;11.95;3.60;;;4.00;99.90;;;;;;10359461;28;20492;-52
2021/01/03 06:20:30;;;;;;;8.68;2.95;;;4.00;99.90;;;;;;10360750;28;20038;-52
2021/01/03 06:26:04;;;;;;;7.25;3.53;;;4.00;99.90;;;;;;10364867;28;20049;-52
2021/01/03 06:31:43;;;;;;;19.27;3.70;;;4.00;99.90;;;;;;10359666;28;20037;-52
2021/01/03 06:37:26;;;;;;;14.02;3.17;;;4.00;99.90;;;;;;10362335;28;20033;-52
2021/01/03 06:43:29;;;;;;;15.70;4.80;;;3.90;99.90;;;;;;10362030;28;20048;-52
2021/01/03 06:49:15;;;;;;;16.70;4.60;;;3.90;99.90;;;;;;10347568;28;20046;-52
2021/01/03 06:54:58;;;;;;;22.42;5.25;;;3.90;99.90;;;;;;10362652;28;20393;-52
2021/01/03 07:00:37;;;;;;;13.68;3.92;;;3.90;99.90;;;;;;10360703;28;20140;-52
2021/01/03 07:06:06;;;;;;;12.27;4.20;;;3.90;99.90;;;;;;10361850;28;20046;-52
2021/01/03 07:11:43;;;;;;;12.30;3.53;;;4.00;99.90;;;;;;10365120;28;20042;-52
2021/01/03 07:17:15;;;;;;;18.90;5.30;;;4.00;99.90;;;;;;10365364;28;20522;-52
2021/01/03 07:23:01;;;;;;;16.20;4.88;;;3.90;99.90;;;;;;10372333;28;20050;-52
2021/01/03 07:28:29;;;;;;;21.80;3.90;;;4.00;99.90;;;;;;10365964;28;20555;-52
2021/01/03 07:34:25;;;;;;;15.23;4.05;;;4.00;99.90;;;;;;10365970;28;20025;-52
2021/01/03 07:39:56;;;;;;;9.27;4.22;;;3.90;99.90;;;;;;10363661;28;20597;-52
2021/01/03 07:45:27;;;;;;;18.88;5.53;;;3.90;99.90;;;;;;10367234;28;20049;-52
2021/01/03 07:50:48;;;;;;;16.70;4.95;;;4.00;99.90;;;;;;10367236;28;20501;-52
2021/01/03 07:56:16;;;;;;;13.73;5.80;;;3.90;99.90;;;;;;10367419;28;20117;-52
2021/01/03 08:01:53;;;;;;;14.40;4.25;;;4.00;99.90;;;;;;10376309;28;20037;-52
2021/01/03 08:07:17;;;;;;;16.27;4.65;;;4.00;99.90;;;;;;10363122;28;20045;-52
2021/01/03 08:12:48;;;;;;;13.23;3.22;;;3.90;99.90;;;;;;10376335;28;20030;-52
2021/01/03 08:18:34;;;;;;;8.18;2.78;;;4.00;99.90;;;;;;10370445;28;20048;-52
2021/01/03 08:24:18;;;;;;;14.63;3.92;;;4.00;99.90;;;;;;10367134;28;20928;-51
2021/01/03 08:29:54;;;;;;;12.20;4.53;;;4.00;99.90;;;;;;10366028;28;20050;-52
2021/01/03 08:35:24;;;;;;;19.83;5.68;;;4.00;99.90;;;;;;10362945;28;20137;-52
2021/01/03 08:40:45;;;;;;;13.57;4.55;;;4.00;99.90;;;;;;10365140;28;20179;-52
2021/01/03 08:46:07;;;;;;;15.52;5.95;;;4.10;99.90;;;;;;10363563;28;20043;-52
2021/01/03 08:51:29;;;;;;;18.45;5.75;;;4.10;99.90;;;;;;10364629;28;20038;-52
2021/01/03 08:56:51;;;;;;;19.27;5.68;;;4.10;99.90;;;;;;10368508;28;20038;-51
2021/01/03 09:02:22;;;;;;;14.55;5.38;;;4.10;99.90;;;;;;10366495;28;20042;-52
2021/01/03 09:07:44;;;;;;;20.88;5.95;;;4.00;99.90;;;;;;10363718;28;20045;-52
2021/01/03 09:13:43;;;;;;;10.15;4.72;;;4.10;99.90;;;;;;10363830;28;20544;-52
2021/01/03 09:19:39;;;;;;;20.83;5.60;;;4.10;99.90;;;;;;10360893;28;20049;-52
2021/01/03 09:25:15;;;;;;;14.57;4.22;;;4.20;99.90;;;;;;10364020;28;20041;-52
2021/01/03 09:30:39;;;;;;;19.80;6.00;;;4.20;99.90;;;;;;10363651;28;20509;-52
2021/01/03 09:36:41;;;;;;;15.00;5.28;;;4.30;99.90;;;;;;10367538;28;20057;-52
2021/01/03 09:42:31;;;;;;;15.93;4.40;;;4.30;99.90;;;;;;10356979;28;20034;-52
2021/01/03 09:47:53;;;;;;;12.98;5.28;;;4.40;99.90;;;;;;10365141;28;20042;-52
2021/01/03 09:53:20;;;;;;;11.77;4.80;;;4.40;99.90;;;;;;10352784;28;20593;-52
2021/01/03 09:58:45;;;;;;;22.85;3.28;;;4.40;99.90;;;;;;10358194;28;20038;-52
2021/01/03 10:04:12;;;;;;;17.60;5.32;;;4.60;99.90;;;;;;10361698;28;20409;-53
2021/01/03 10:09:34;;;;;;;15.65;3.47;;;4.60;99.90;;;;;;10360201;28;20045;-52
2021/01/03 10:15:11;;;;;;;10.85;4.90;;;4.50;99.90;;;;;;10376102;28;20049;-52
2021/01/03 10:20:32;;;;;;;11.35;4.47;;;4.50;99.90;;;;;;10360023;28;20041;-52
2021/01/03 10:25:53;;;;;;;11.27;3.10;;;4.50;99.90;;;;;;10361646;28;20050;-51
2021/01/03 10:31:14;;;;;;;13.32;3.33;;;4.50;99.90;;;;;;10350036;28;20046;-51
2021/01/03 10:36:35;;;;;;;7.90;3.33;;;4.50;99.90;;;;;;10353222;28;20167;-51
2021/01/03 10:41:57;;;;;;;12.80;4.07;;;4.50;99.90;;;;;;10350940;28;20128;-51
2021/01/03 10:47:18;;;;;;;7.75;3.38;;;4.60;99.90;;;;;;10352602;28;20501;-52
2021/01/03 10:52:40;;;;;;;10.27;2.97;;;4.50;99.90;;;;;;10352398;28;20056;-51
2021/01/03 10:58:01;;;;;;;6.65;2.20;;;4.40;99.90;;;;;;10360221;28;20037;-51
2021/01/03 11:03:22;;;;;;;5.97;2.67;;;4.40;99.90;;;;;;10357688;28;20399;-52
2021/01/03 11:08:43;;;;;;;7.28;2.85;;;4.40;99.90;;;;;;10342696;28;20038;-51
2021/01/03 11:14:05;;;;;;;12.25;3.50;;;4.50;99.90;;;;;;10360404;28;20052;-52
2021/01/03 11:19:26;;;;;;;9.13;2.92;;;4.50;99.90;;;;;;10352447;28;20132;-52
2021/01/03 11:24:47;;;;;;;6.85;2.72;;;4.40;99.90;;;;;;10349071;28;20046;-52
2021/01/03 11:30:09;;;;;;;6.10;2.80;;;4.50;99.90;;;;;;10348607;28;20111;-52
2021/01/03 11:35:30;;;;;;;7.93;2.53;;;4.50;99.90;;;;;;10352863;28;20045;-52
2021/01/03 11:40:51;;;;;;;7.72;2.50;;;4.60;99.90;;;;;;10353444;28;20125;-52
2021/01/03 11:46:12;;;;;;;8.50;3.25;;;4.40;99.90;;;;;;10358155;28;20054;-52
2021/01/03 11:51:33;;;;;;;10.18;3.17;;;4.50;99.90;;;;;;10356593;28;20088;-52
2021/01/03 11:56:56;;;;;;;10.30;2.83;;;4.40;99.90;;;;;;10355715;28;20048;-52
2021/01/03 12:02:17;;;;;;;4.45;2.05;;;4.40;99.90;;;;;;10366888;28;20038;-52
2021/01/03 12:07:38;;;;;;;5.53;2.67;;;4.40;99.90;;;;;;10344367;28;20037;-52
2021/01/03 12:12:59;;;;;;;7.53;2.25;;;4.40;99.90;;;;;;10349530;28;20049;-52
2021/01/03 12:18:20;;;;;;;5.88;2.38;;;4.50;99.90;;;;;;10352791;28;20042;-52
2021/01/03 12:23:41;;;;;;;12.27;2.55;;;4.40;99.90;;;;;;10364989;28;20038;-52
2021/01/03 12:29:03;;;;;;;5.53;2.78;;;4.50;99.90;;;;;;10348127;28;20053;-52
2021/01/03 12:34:26;;;;;;;5.93;3.38;;;4.50;99.90;;;;;;10351969;28;20179;-52
2021/01/03 12:39:48;;;;;;;10.27;2.35;;;4.50;99.90;;;;;;10350659;28;20458;-52
2021/01/03 12:45:12;;;;;;;5.65;1.77;;;4.60;99.90;;;;;;10348559;28;20161;-51
2021/01/03 12:50:33;;;;;;;5.82;2.00;;;4.60;99.90;;;;;;10351970;28;20835;-52
2021/01/03 12:55:53;;;;;;;6.05;2.47;;;4.60;99.90;;;;;;10353971;28;20095;-52
2021/01/03 13:01:14;;;;;;;7.03;3.88;;;4.60;99.90;;;;;;10346643;28;20380;-52
2021/01/03 13:06:37;;;;;;;5.45;1.63;;;4.70;99.90;;;;;;10339461;28;20133;-52
2021/01/03 13:11:58;;;;;;;10.05;2.63;;;4.70;99.90;;;;;;10349188;28;20401;-52
2021/01/03 13:17:19;;;;;;;3.15;1.33;;;4.70;99.90;;;;;;10347156;28;20049;-52
2021/01/03 13:22:40;;;;;;;6.07;2.10;;;4.70;99.90;;;;;;10349087;28;20044;-52
2021/01/03 13:28:00;;;;;;;8.07;1.70;;;4.70;99.90;;;;;;10345009;28;20042;-53
2021/01/03 13:33:22;;;;;;;6.32;2.35;;;4.80;99.90;;;;;;10360971;28;20278;-53
2021/01/03 13:38:44;;;;;;;5.10;2.50;;;4.90;99.90;;;;;;10347233;28;20089;-52
2021/01/03 13:44:06;;;;;;;10.10;1.83;;;4.90;99.90;;;;;;10351776;28;20188;-52
2021/01/03 13:49:27;;;;;;;12.68;3.35;;;4.90;99.90;;;;;;10350351;28;20482;-52
2021/01/03 13:54:48;;;;;;;6.05;3.22;;;4.90;99.90;;;;;;10347931;28;20834;-52
2021/01/03 14:00:14;;;;;;;8.45;2.42;;;4.80;99.90;;;;;;10347085;28;20402;-52
2021/01/03 14:05:42;;;;;;;11.95;3.30;;;4.90;99.90;;;;;;10347350;28;20056;-52
2021/01/03 14:11:03;;;;;;;11.88;2.45;;;4.80;99.90;;;;;;10350552;28;20516;-52
2021/01/03 14:16:27;;;;;;;4.40;1.83;;;5.10;99.90;;;;;;10351999;28;20576;-52
2021/01/03 14:21:49;;;;;;;9.02;3.28;;;5.00;99.90;;;;;;10350214;28;20497;-52
2021/01/03 14:27:10;;;;;;;9.10;2.63;;;5.10;99.90;;;;;;10349901;28;20146;-52
2021/01/03 14:32:31;;;;;;;8.32;2.55;;;4.90;99.90;;;;;;10363100;28;20174;-52
2021/01/03 14:37:59;;;;;;;8.00;2.47;;;4.80;99.90;;;;;;10363537;28;20049;-52
2021/01/03 14:43:27;;;;;;;6.30;2.90;;;4.70;99.90;;;;;;10362846;28;20037;-52
2021/01/03 14:49:17;;;;;;;8.02;3.72;;;4.70;99.90;;;;;;10363267;28;20655;-52
2021/01/03 14:54:53;;;;;;;;;;;4.60;99.90;;;;;;10365107;28;20040;-51
2021/01/03 15:00:19;;;;;;;7.40;2.47;;;4.70;99.90;;;;;;10363914;28;20409;-52
2021/01/03 15:05:58;;;;;;;9.60;2.60;;;4.60;99.90;;;;;;10364714;28;20048;-52
2021/01/03 15:11:19;;;;;;;5.15;2.75;;;4.60;99.90;;;;;;10366688;28;20045;-52
2021/01/03 15:16:40;;;;;;;8.45;3.00;;;4.60;99.90;;;;;;10364145;28;20052;-52
2021/01/03 15:22:01;;;;;;;9.50;2.85;;;4.60;99.90;;;;;;10365486;28;20037;-52
2021/01/03 15:27:24;;;;;;;8.55;2.08;;;4.60;99.90;;;;;;10364499;28;20518;-52
2021/01/03 15:32:49;;;;;;;9.93;2.38;;;4.60;99.90;;;;;;10378616;28;20064;-51
2021/01/03 15:38:13;;;;;;;9.70;2.28;;;4.50;99.90;;;;;;10361294;28;20030;-52
2021/01/03 15:43:34;;;;;;;5.85;2.47;;;4.50;99.90;;;;;;10356263;28;20440;-52
2021/01/03 15:49:00;;;;;;;4.10;1.65;;;4.50;99.90;;;;;;10367577;28;20044;-52
2021/01/03 15:54:21;;;;;;;6.90;1.55;;;4.50;99.90;;;;;;10366529;28;20414;-51
2021/01/03 15:59:47;;;;;;;4.63;1.15;;;4.50;99.90;;;;;;10368309;28;20503;-52
2021/01/03 16:05:10;;;;;;;3.88;1.38;;;4.60;99.90;;;;;;10367495;28;20065;-52
2021/01/03 16:10:31;;;;;;;2.97;1.05;;;4.60;99.90;;;;;;10363490;28;20049;-52
2021/01/03 16:15:52;;;;;;;6.88;2.05;;;4.50;99.90;;;;;;10361676;28;20826;-51
2021/01/03 16:21:13;;;;;;;3.00;1.20;;;4.40;99.90;;;;;;10364562;28;20442;-52
2021/01/03 16:26:46;;;;;;;6.07;2.10;;;4.40;99.90;;;;;;10371531;28;20648;-52
2021/01/03 16:32:10;;;;;;;2.13;1.13;;;4.40;99.90;;;;;;10362810;28;20037;-52
2021/01/03 16:38:07;;;;;;;4.50;1.40;;;4.30;99.90;;;;;;10361895;28;20433;-52
2021/01/03 16:43:54;;;;;;;2.08;0.80;;;4.30;99.90;;;;;;10362202;28;20034;-52
2021/01/03 16:49:25;;;;;;;1.85;0.88;;;4.30;99.90;;;;;;10365136;28;20501;-52
2021/01/03 16:55:08;;;;;;;5.82;1.40;;;4.30;99.90;;;;;;10357265;28;20046;-52
2021/01/03 17:00:29;;;;;;;5.00;2.15;;;4.30;99.90;;;;;;10359138;28;20037;-52
2021/01/03 17:05:50;;;;;;;3.10;0.93;;;4.20;99.90;;;;;;10359809;28;20041;-52
2021/01/03 17:11:25;;;;;;;6.10;3.10;;;4.20;99.90;;;;;;10358155;28;20042;-52
2021/01/03 17:16:52;;;;;;;3.70;1.45;;;4.20;99.90;;;;;;10361101;28;20034;-52
2021/01/03 17:22:34;;;;;;;4.10;1.27;;;4.30;99.90;;;;;;10362175;28;20041;-52
2021/01/03 17:28:27;;;;;;;5.82;1.80;;;4.30;99.90;;;;;;10362928;28;20077;-51
2021/01/03 17:34:03;;;;;;;4.22;1.33;;;4.30;99.90;;;;;;10362775;28;20034;-51
2021/01/03 17:39:38;;;;;;;3.05;1.20;;;4.20;99.90;;;;;;10362365;28;20069;-52
2021/01/03 17:45:14;;;;;;;1.55;0.95;;;4.20;99.90;;;;;;10361963;28;20053;-52
2021/01/03 17:50:35;;;;;;;5.75;1.40;;;4.20;99.90;;;;;;10358512;28;20038;-52
2021/01/03 17:55:56;;;;;;;7.05;2.70;;;4.20;99.90;;;;;;10360061;28;20045;-52
2021/01/03 18:01:17;;;;;;;7.25;2.20;;;4.30;99.90;;;;;;10361262;28;20124;-52
2021/01/03 18:06:53;;;;;;;5.13;1.23;;;4.20;99.90;;;;;;10358623;28;20060;-53
2021/01/03 18:12:14;;;;;;;5.25;1.25;;;4.20;99.90;;;;;;10359922;28;20100;-52
2021/01/03 18:17:36;;;;;;;6.15;1.50;;;4.20;99.90;;;;;;10361852;28;20037;-52
2021/01/03 18:22:57;;;;;;;4.25;1.30;;;4.20;99.90;;;;;;10368687;28;20073;-52
2021/01/03 18:28:18;;;;;;;2.13;0.85;;;4.20;99.90;;;;;;10360277;28;20041;-52
2021/01/03 18:33:39;;;;;;;3.50;0.88;;;4.20;99.90;;;;;;10362448;28;20045;-52
2021/01/03 18:38:59;;;;;;;3.78;1.10;;;4.20;99.90;;;;;;10359118;28;20041;-52
2021/01/03 18:44:21;;;;;;;4.15;1.15;;;4.20;99.90;;;;;;10361016;28;20053;-52
2021/01/03 18:49:42;;;;;;;2.83;1.30;;;4.30;99.90;;;;;;10360884;28;20037;-52
2021/01/03 18:55:03;;;;;;;2.83;1.35;;;4.20;99.90;;;;;;10361146;28;20486;-52
2021/01/03 19:00:24;;;;;;;4.28;0.95;;;4.20;99.90;;;;;;10358930;28;20054;-52
2021/01/03 19:05:49;;;;;;;2.65;0.90;;;4.20;99.90;;;;;;10353954;28;20402;-52
2021/01/03 19:11:10;;;;;;;1.70;1.10;;;4.30;99.90;;;;;;10358222;28;20026;-52
2021/01/03 19:16:38;;;;;;;7.82;1.08;;;4.30;99.90;;;;;;10364747;28;20038;-52
2021/01/03 19:22:04;;;;;;;4.35;1.00;;;4.20;99.90;;;;;;10363656;28;20057;-52
2021/01/03 19:27:25;;;;;;;2.17;0.77;;;4.30;99.90;;;;;;10365633;28;20087;-52
2021/01/03 19:32:46;;;;;;;1.88;0.95;;;4.30;99.90;;;;;;10370012;28;20049;-52
2021/01/03 19:38:07;;;;;;;2.70;0.70;;;4.30;99.90;;;;;;10367339;28;22113;-53
2021/01/03 19:43:28;;;;;;;2.03;0.50;;;4.30;99.90;;;;;;10365800;28;20084;-52
2021/01/03 19:48:50;;;;;;;1.33;0.50;;;4.30;99.90;;;;;;10366292;28;20049;-52
2021/01/03 19:54:10;;;;;;;1.17;0.75;;;4.30;99.90;;;;;;10368790;28;20037;-52
2021/01/03 19:59:31;;;;;;;4.80;0.75;;;4.30;99.90;;;;;;10364912;28;20605;-52
2021/01/03 20:04:52;;;;;;;2.35;0.80;;;4.20;99.90;;;;;;10365570;28;20385;-53
2021/01/03 20:10:13;;;;;;;1.80;0.77;;;4.20;99.90;;;;;;10364767;28;20038;-52
2021/01/03 20:15:34;;;;;;;3.08;0.80;;;4.20;99.90;;;;;;10362573;28;20053;-52
2021/01/03 20:20:55;;;;;;;2.03;0.73;;;4.20;99.90;;;;;;10362567;28;20049;-52
2021/01/03 20:26:17;;;;;;;2.50;0.93;;;4.20;99.90;;;;;;10363649;28;20053;-53
2021/01/03 20:31:38;;;;;;;1.88;0.80;;;4.10;99.90;;;;;;10365897;28;20501;-53
2021/01/03 20:37:00;;;;;;;2.17;0.80;;;4.10;99.90;;;;;;10365244;28;20494;-53
2021/01/03 20:42:21;;;;;;;1.63;0.65;;;4.20;99.90;;;;;;10375513;28;20036;-53
2021/01/03 20:47:42;;;;;;;2.47;0.90;;;4.20;99.90;;;;;;10362183;28;20410;-53
2021/01/03 20:53:03;;;;;;;0.82;0.45;;;4.10;99.90;;;;;;10364860;28;20046;-52
2021/01/03 20:58:24;;;;;;;2.17;0.55;;;4.20;99.90;;;;;;10361885;28;20107;-52
2021/01/03 21:03:45;;;;;;;4.03;1.42;;;4.30;99.90;;;;;;10363834;28;20102;-53
2021/01/03 21:09:06;;;;;;;1.83;0.50;;;4.20;99.90;;;;;;10361731;28;20033;-52
2021/01/03 21:14:27;;;;;;;2.13;0.90;;;4.40;99.90;;;;;;10362259;28;20083;-52
2021/01/03 21:19:48;;;;;;;1.35;0.38;;;4.30;99.90;;;;;;10363231;28;20042;-52
2021/01/03 21:25:32;;;;;;;4.05;1.35;;;4.20;99.90;;;;;;10360840;28;20046;-52
2021/01/03 21:31:04;;;;;;;3.55;0.82;;;4.20;99.90;;;;;;10360396;28;20056;-52
2021/01/03 21:36:55;;;;;;;7.43;1.48;;;4.20;99.90;;;;;;10363387;28;20041;-52
2021/01/03 21:42:48;;;;;;;2.25;0.77;;;4.20;99.90;;;;;;10362780;28;20213;-53
2021/01/03 21:48:13;;;;;;;3.15;0.98;;;4.20;99.90;;;;;;10365622;28;20599;-52
2021/01/03 21:53:53;;;;;;;2.25;0.80;;;4.10;99.90;;;;;;10365373;28;20117;-53
2021/01/03 21:59:39;;;;;;;3.80;2.28;;;4.00;99.90;;;;;;10366444;28;20041;-52
2021/01/03 22:05:12;;;;;;;3.35;0.85;;;4.00;99.90;;;;;;10370076;28;20125;-53
2021/01/03 22:11:03;;;;;;;2.65;1.02;;;4.10;99.90;;;;;;10362900;28;20195;-52
2021/01/03 22:16:26;;;;;;;3.35;1.38;;;4.10;99.90;;;;;;10365732;28;20042;-52
2021/01/03 22:21:47;;;;;;;4.05;1.20;;;4.20;99.90;;;;;;10367984;28;20038;-52
2021/01/03 22:27:26;;;;;;;2.17;0.75;;;4.10;99.90;;;;;;10365099;28;20076;-52
2021/01/03 22:33:15;;;;;;;2.58;1.08;;;4.00;99.90;;;;;;10368586;28;20504;-52
2021/01/03 22:38:44;;;;;;;2.45;1.63;;;4.10;99.90;;;;;;10362627;28;20118;-52
2021/01/03 22:44:25;;;;;;;3.67;1.23;;;4.10;99.90;;;;;;10364566;28;20041;-52
2021/01/03 22:50:08;;;;;;;7.82;1.88;;;4.00;99.90;;;;;;10373749;28;20044;-53
2021/01/03 22:55:53;;;;;;;2.78;1.15;;;3.90;99.90;;;;;;10368547;28;20390;-53
2021/01/03 23:01:30;;;;;;;5.38;1.70;;;4.00;99.90;;;;;;10373024;28;20091;-52
2021/01/03 23:07:15;;;;;;;9.95;1.30;;;4.00;99.90;;;;;;10372100;28;20037;-53
2021/01/03 23:12:40;;;;;;;6.55;1.50;;;4.00;99.90;;;;;;10368390;28;20036;-52
2021/01/03 23:18:26;;;;;;;5.22;1.50;;;4.00;99.90;;;;;;10365715;28;20045;-52
2021/01/03 23:23:59;;;;;;;6.07;1.60;;;3.90;99.90;;;;;;10366913;28;20564;-52
2021/01/03 23:29:23;;;;;;;4.63;2.03;;;3.90;99.90;;;;;;10366015;28;20064;-52
2021/01/03 23:34:51;;;;;;;3.85;1.45;;;4.00;99.90;;;;;;10371683;28;20026;-52
2021/01/03 23:40:14;;;;;;;4.05;2.17;;;4.00;99.90;;;;;;10376554;28;20061;-52
2021/01/03 23:45:43;;;;;;;1.65;0.73;;;4.00;99.90;;;;;;10367699;28;20513;-52
2021/01/03 23:51:20;;;;;;;5.65;1.33;;;4.00;99.90;;;;;;10369683;28;20492;-52
2021/01/03 23:57:01;;;;;;;1.95;1.00;;;4.10;99.90;;;;;;10371848;28;20053;-52
